Date,TemperatureHighF,TemperatureAvgF,TemperatureLowF,DewpointHighF,DewpointAvgF,DewpointLowF,HumidityHigh,HumidityAvg,HumidityLow,PressureMaxIn,PressureMinIn,WindSpeedMaxMPH,WindSpeedAvgMPH,GustSpeedMaxMPH,PrecipitationSumIn
2013-1-1,31,17,11,13,9,6,87,70,45,0.00,40.00,11,5,14,0.00
2013-1-2,30,17,8,14,8,4,83,69,49,0.00,40.00,10,4,14,0.00
2013-1-3,31,15,5,10,4,-1,84,64,39,0.00,40.00,10,5,14,0.00
2013-1-4,31,13,7,11,3,-1,77,63,42,0.00,40.00,11,6,14,0.00
2013-1-5,33,14,6,11,4,1,79,66,40,0.00,40.00,12,6,17,0.00
2013-1-6,24,14,2,11,6,-2,84,72,54,0.00,40.00,14,5,17,0.00
2013-1-7,30,15,7,16,8,3,85,71,49,0.00,40.00,15,5,18,0.00
2013-1-8,33,21,9,16,12,5,84,68,46,0.00,40.00,12,-10,17,0.00
2013-1-9,42,25,16,21,15,11,80,67,40,0.00,40.00,14,7,17,0.00
2013-1-10,47,29,19,29,19,14,80,66,40,0.00,40.00,24,10,41,0.00
2013-1-11,42,28,16,31,14,2,86,57,38,0.00,40.00,24,6,40,0.50
2013-1-12,28,14,7,10,3,-1,71,61,44,0.00,40.00,10,5,13,0.00
2013-1-13,21,12,8,12,4,-2,80,69,57,0.00,40.00,10,5,14,0.10
2013-1-14,22,10,2,1,-4,-7,67,54,36,0.00,40.00,11,6,16,0.00
2013-1-15,20,10,-1,5,-3,-10,65,56,41,0.00,40.00,10,4,16,0.00
2013-1-16,32,17,9,10,4,0,74,58,38,0.00,40.00,11,4,14,0.00
2013-1-17,32,19,11,15,9,6,77,66,47,0.00,40.00,12,7,16,0.00
2013-1-18,34,18,9,16,11,5,83,72,48,0.00,40.00,15,6,18,0.00
2013-1-19,40,22,10,18,13,6,85,71,40,0.00,40.00,16,6,21,0.00
2013-1-20,38,21,10,17,13,6,87,71,40,0.00,40.00,14,6,17,0.00
2013-1-21,41,24,15,17,13,10,81,65,35,0.00,40.00,15,6,18,0.00
2013-1-22,19,6,15,14,-57,-100,82,36,10,0.00,40.00,13,3,17,0.00
2013-1-23,34,15,19,17,-39,-100,77,36,10,0.00,40.00,10,2,12,0.00
2013-1-24,28,22,20,19,16,14,80,76,68,0.00,40.00,11,3,13,0.00
2013-1-25,35,34,33,33,32,31,93,92,91,0.00,40.00,7,2,10,0.00
2013-1-26,42,37,33,40,35,31,94,92,89,0.00,40.00,11,3,12,0.60
2013-1-27,49,38,34,40,35,32,94,90,52,0.00,40.00,24,3,43,0.00
2013-1-28,45,36,26,38,31,23,91,83,62,0.00,40.00,14,5,31,2.90
2013-1-29,35,25,15,24,17,12,91,72,45,0.00,40.00,9,4,14,0.00
2013-1-30,34,26,17,22,18,13,87,72,52,0.00,40.00,6,2,10,0.00
2013-1-31,45,34,21,28,24,17,84,68,46,0.00,40.00,10,4,14,0.00
2013-2-1,46,34,26,27,25,22,86,71,45,0.00,40.00,10,5,12,0.00
2013-2-2,46,34,25,27,23,19,81,66,42,0.00,40.00,11,6,17,0.00
2013-2-3,40,33,28,26,23,21,82,69,48,0.00,40.00,11,5,12,0.00
2013-2-4,49,33,23,27,23,19,85,70,40,0.00,40.00,11,5,16,0.00
2013-2-5,50,36,25,27,23,20,84,63,32,0.00,40.00,14,6,19,0.00
2013-2-6,45,34,30,26,24,23,75,67,45,0.00,40.00,12,6,17,0.00
2013-2-7,49,41,31,26,21,19,61,46,36,0.00,40.00,9,6,12,0.00
2013-2-8,57,40,29,31,22,19,70,51,26,0.00,40.00,22,8,35,0.00
2013-2-9,46,36,32,33,27,20,85,68,42,0.00,40.00,11,4,16,0.00
2013-2-10,42,32,23,27,23,19,91,72,43,0.00,40.00,10,4,18,0.80
2013-2-11,40,30,23,26,20,9,92,69,47,0.00,40.00,12,6,18,0.70
2013-2-12,39,26,16,15,10,6,64,51,31,0.00,40.00,11,5,19,0.00
2013-2-13,44,33,26,22,17,14,73,52,33,0.00,40.00,9,4,15,0.00
2013-2-14,47,35,27,26,21,16,77,57,34,0.00,40.00,9,3,11,0.00
2013-2-15,49,34,25,21,18,15,67,51,31,0.00,40.00,10,5,14,0.00
2013-2-16,49,32,24,22,18,15,68,57,33,0.00,40.00,12,6,17,0.00
2013-2-17,52,37,27,24,20,17,67,50,28,0.00,40.00,11,6,19,0.00
2013-2-18,44,35,24,20,14,11,58,43,28,0.00,40.00,9,4,16,0.00
2013-2-19,49,34,22,19,14,10,58,44,29,0.00,40.00,11,7,20,0.00
2013-2-20,50,38,30,29,21,16,71,51,37,0.00,40.00,12,5,16,0.00
2013-2-21,46,37,32,33,25,18,92,64,35,0.00,40.00,11,4,15,1.20
2013-2-22,40,32,25,23,19,16,68,59,38,0.00,40.00,10,5,16,0.00
2013-2-23,41,29,22,28,19,12,92,67,42,0.00,40.00,17,6,25,1.70
2013-2-24,39,29,22,26,21,14,93,73,52,0.00,40.00,9,5,17,0.80
2013-2-25,41,30,19,20,16,10,69,55,39,0.00,40.00,12,5,15,0.00
2013-2-26,40,32,25,30,19,13,91,62,36,0.00,40.00,12,4,15,1.50
2013-2-27,42,29,18,17,13,9,72,52,28,0.00,40.00,12,6,16,0.00
2013-2-28,44,31,19,17,12,7,62,45,28,0.00,40.00,13,5,17,0.00
2013-3-1,51,39,31,26,23,17,68,51,36,0.00,40.00,9,4,12,0.00
2013-3-2,60,42,29,30,26,23,78,56,30,0.00,40.00,11,5,14,0.00
2013-3-3,58,45,35,37,30,27,80,57,33,0.00,40.00,11,5,14,0.10
2013-3-4,53,41,31,45,29,12,92,65,37,0.00,40.00,22,5,32,0.00
2013-3-5,53,36,25,17,13,10,54,39,19,0.00,40.00,13,7,19,0.00
2013-3-6,65,46,30,28,20,16,56,37,19,0.00,40.00,22,8,34,0.00
2013-3-7,67,52,37,31,22,15,62,35,16,0.00,40.00,19,8,29,0.00
2013-3-8,56,44,39,41,30,20,89,59,32,0.00,40.00,17,4,25,0.20
2013-3-9,40,37,35,37,32,19,91,83,48,0.00,40.00,14,5,22,0.50
2013-3-10,52,39,28,26,20,17,67,49,29,0.00,40.00,16,6,19,0.00
2013-3-11,54,41,31,29,25,23,73,54,33,0.00,40.00,9,5,14,0.00
2013-3-12,62,48,37,34,29,26,74,50,29,0.00,40.00,11,4,17,0.00
2013-3-13,67,50,36,32,28,23,75,48,21,0.00,40.00,11,6,17,0.00
2013-3-14,73,53,38,35,30,27,65,43,22,0.00,40.00,15,6,19,0.00
2013-3-15,72,55,43,36,32,30,59,42,24,0.00,40.00,13,6,16,0.00
2013-3-16,67,55,45,39,33,30,67,44,33,0.00,40.00,20,6,31,0.00
2013-3-17,63,50,42,38,27,11,73,45,22,0.00,40.00,16,6,32,0.00
2013-3-18,58,46,35,24,18,10,46,32,23,0.00,40.00,12,4,29,0.00
2013-3-19,60,48,38,25,17,10,48,31,17,0.00,40.00,11,5,17,0.00
2013-3-20,60,46,34,31,19,10,49,34,26,0.00,40.00,16,7,26,0.00
2013-3-21,56,46,40,44,30,12,90,58,20,0.00,40.00,21,4,30,0.30
2013-3-22,56,42,33,23,19,11,61,42,19,0.00,40.00,11,6,27,0.00
2013-3-23,39,32,26,20,10,6,50,39,32,0.00,40.00,14,5,21,0.20
2013-3-24,43,32,22,14,10,6,51,39,28,0.00,40.00,11,5,19,0.00
2013-3-25,52,34,21,16,9,6,51,36,20,0.00,40.00,12,6,17,0.00
2013-3-26,66,46,31,26,17,9,41,31,21,0.00,40.00,12,6,20,0.00
2013-3-27,70,54,40,33,24,18,55,33,19,0.00,40.00,12,6,17,0.00
2013-3-28,73,57,43,34,24,18,42,30,19,0.00,40.00,11,6,19,0.00
2013-3-29,73,57,46,35,28,21,42,34,23,0.00,40.00,12,6,17,0.00
2013-3-30,74,57,43,39,31,-100,63,40,22,0.00,40.00,15,6,29,0.00
2013-3-31,75,57,42,38,29,20,56,35,19,0.00,40.00,11,6,18,0.00
2013-4-1,71,57,46,39,29,20,49,34,24,0.00,40.00,15,7,25,0.00
2013-4-2,58,50,41,38,34,32,72,55,42,0.00,40.00,14,5,22,0.00
2013-4-3,69,54,40,39,34,25,76,49,27,0.00,40.00,11,4,21,0.00
2013-4-4,75,58,42,36,29,24,50,34,23,0.00,40.00,10,5,17,0.00
2013-4-5,72,60,52,39,32,26,58,35,25,0.00,40.00,17,6,28,0.00
2013-4-6,70,57,45,39,35,29,65,46,24,0.00,40.00,15,5,24,0.00
2013-4-7,71,57,45,41,34,23,71,45,23,0.00,40.00,15,5,25,0.00
2013-4-8,67,53,45,44,32,23,85,47,29,0.00,40.00,24,10,40,0.30
2013-4-9,46,34,26,36,23,11,80,65,54,0.00,40.00,20,9,29,0.20
2013-4-10,50,35,23,22,14,9,55,44,27,0.00,40.00,17,7,22,0.00
2013-4-11,60,45,34,34,27,19,64,50,36,0.00,40.00,9,3,17,0.00
2013-4-12,69,53,41,38,31,23,73,46,22,0.00,40.00,11,5,18,0.00
2013-4-13,69,54,39,44,29,23,80,39,23,0.00,40.00,21,8,34,0.10
2013-4-14,59,50,38,46,25,13,90,45,19,0.00,40.00,12,4,23,0.30
2013-4-15,50,42,37,41,32,17,92,70,28,0.00,40.00,18,5,23,0.70
2013-4-16,58,44,30,39,33,27,94,70,33,0.00,40.00,22,8,39,2.90
2013-4-17,39,32,26,29,21,11,94,70,37,0.00,40.00,13,8,21,2.80
2013-4-18,44,34,25,16,12,11,55,41,29,0.00,40.00,11,5,19,0.00
2013-4-19,57,42,29,26,19,16,60,41,25,0.00,40.00,11,4,16,0.00
2013-4-20,62,50,42,37,32,26,67,51,32,0.00,40.00,11,6,18,0.00
2013-4-21,67,52,39,38,31,21,87,50,19,0.00,40.00,9,5,19,0.00
2013-4-22,71,58,46,34,28,24,51,32,20,0.00,40.00,14,5,26,0.00
2013-4-23,55,46,35,28,19,14,47,35,24,0.00,40.00,14,6,22,0.00
2013-4-24,65,50,37,24,18,14,40,29,20,0.00,40.00,11,6,16,0.00
2013-4-25,74,55,40,30,22,16,40,27,17,0.00,40.00,12,6,20,0.00
2013-4-26,77,60,45,29,24,20,37,26,15,0.00,40.00,12,6,18,0.00
2013-4-27,79,61,44,33,25,19,37,26,16,0.00,40.00,11,5,16,0.00
2013-4-28,83,64,46,35,28,21,37,26,17,0.00,40.00,9,5,19,0.00
2013-4-29,84,67,50,38,32,26,41,28,17,0.00,40.00,11,5,21,0.00
2013-4-30,83,66,51,39,33,27,58,29,20,0.00,40.00,13,5,29,0.00
2013-5-1,59,49,40,40,29,16,89,52,23,0.00,40.00,13,6,28,0.30
2013-5-2,63,49,37,20,17,14,42,29,19,0.00,40.00,15,7,27,0.00
2013-5-3,74,55,38,26,20,14,40,26,15,0.00,40.00,12,5,17,0.00
2013-5-4,82,61,43,32,24,18,37,25,14,0.00,40.00,12,6,31,0.00
2013-5-5,78,65,55,36,29,24,37,26,19,0.00,40.00,17,5,33,0.00
2013-5-6,75,61,50,49,38,26,88,46,24,0.00,40.00,18,5,31,0.30
2013-5-7,66,53,46,51,45,37,90,77,38,0.00,40.00,18,5,30,0.00
2013-5-8,57,50,44,47,43,39,92,78,53,0.00,40.00,10,3,15,0.00
2013-5-9,70,56,46,50,43,36,92,66,33,0.00,40.00,8,3,14,0.00
2013-5-10,77,61,45,43,35,-100,80,44,22,0.00,40.00,14,5,26,0.00
2013-5-11,81,64,48,40,35,-100,60,37,20,0.00,40.00,10,5,16,0.00
2013-5-12,85,68,53,43,38,35,54,35,22,0.00,40.00,11,5,21,0.00
2013-5-13,73,61,56,44,38,36,49,43,33,0.00,40.00,10,7,14,0.00
2013-6-12,97,79,64,48,39,30,29,23,17,0.00,40.00,11,5,19,0.00
2013-6-13,92,81,68,47,40,33,28,23,20,0.00,40.00,19,9,33,0.00
2013-6-14,96,78,60,45,38,27,44,25,14,0.00,40.00,14,4,21,0.00
2013-6-15,94,77,60,47,37,27,28,23,19,0.00,40.00,14,6,27,0.00
2013-6-16,92,78,65,52,44,37,42,30,23,0.00,40.00,17,5,24,0.00
2013-6-17,98,80,63,51,44,40,44,30,18,0.00,40.00,12,5,17,0.00
2013-6-18,96,80,61,51,41,29,38,26,17,0.00,40.00,14,6,27,0.00
2013-6-19,94,78,61,43,35,27,27,21,15,0.00,40.00,24,8,35,0.00
2013-7-5,92,82,74,57,52,48,40,36,31,0.00,40.00,7,5,13,0.00
2013-7-6,91,81,74,57,51,48,43,35,29,0.00,40.00,7,3,14,0.00
2013-7-7,90,76,69,55,51,49,50,42,30,0.00,40.00,7,4,19,0.00
2013-7-8,92,66,66,58,42,-100,72,55,21,0.00,40.00,9,5,16,0.00
2013-7-9,84,77,71,52,47,45,38,34,31,0.00,40.00,6,4,11,0.00
2013-7-10,83,59,73,48,12,-100,34,24,29,0.00,40.00,9,5,12,0.00
2013-7-11,97,83,73,55,46,38,31,28,24,0.00,40.00,11,8,19,0.00
2013-7-12,94,83,67,62,56,52,81,41,26,0.00,40.00,7,4,21,0.00
2013-7-13,94,82,68,61,56,51,74,44,28,0.00,40.00,9,5,19,0.00
2013-7-14,95,82,71,58,54,50,57,38,26,0.00,40.00,11,4,15,0.00
2013-7-15,97,80,69,58,52,49,52,40,24,0.00,40.00,14,4,22,0.00
2013-7-16,95,82,68,60,57,54,70,43,30,0.00,40.00,11,5,20,0.00
2013-7-17,94,79,67,65,59,52,90,57,27,0.00,40.00,10,4,18,0.50
2013-7-18,95,75,65,64,60,53,87,63,28,0.00,40.00,9,4,22,0.20
2013-7-19,94,81,66,61,56,51,81,45,27,0.00,40.00,6,2,16,0.00
2013-7-20,84,74,67,58,56,53,69,54,36,0.00,40.00,7,3,12,0.00
2013-7-21,84,80,77,48,47,46,33,30,28,0.00,40.00,1,1,4,0.00
2013-7-22,97,82,73,55,50,46,39,32,24,0.00,40.00,8,4,12,0.00
2013-7-23,83,73,69,45,40,39,33,30,26,0.00,40.00,7,5,10,0.00
2013-7-24,93,82,74,54,48,43,43,30,26,0.00,40.00,15,4,30,0.00
2013-7-25,93,81,71,57,51,48,45,36,26,0.00,40.00,8,5,13,0.00
2013-7-26,95,78,70,55,50,47,45,38,25,0.00,40.00,11,8,13,0.00
2013-7-27,92,78,69,58,50,42,65,38,29,0.00,40.00,8,4,14,0.00
2013-8-6,92,75,67,56,51,47,65,43,30,0.00,40.00,12,6,24,0.00
2013-8-7,87,72,66,55,52,50,64,51,33,0.00,40.00,9,3,14,0.00
2013-8-8,87,72,63,56,52,46,69,50,27,0.00,40.00,8,3,14,0.00
2013-8-9,87,74,61,53,49,46,64,43,28,0.00,40.00,11,3,21,0.00
2013-8-10,84,70,60,53,49,46,75,49,29,0.00,40.00,11,4,21,0.00
2013-8-11,89,70,57,51,48,44,79,50,23,0.00,40.00,7,4,13,0.00
2013-8-12,87,74,62,51,46,41,46,37,27,0.00,40.00,9,4,20,0.00